Time;durP1;ratioP1;P1;durP2;ratioP2;P2;SDS_P1;SDS_P2;PMS_P1;PMS_P2;Temp;Humidity;BMP_temperature;BMP_pressure;BME280_temperature;BME280_humidity;BME280_pressure;Samples;Min_cycle;Max_cycle;Signal;HPM_P1;HPM_P2
2022/01/07 00:00:00;;;;;;;24.27;15.23;;;1.00;99.90;;;;;;6126069;23;20279;-85
2022/01/07 00:02:26;;;;;;;23.27;15.80;;;0.90;99.90;;;;;;6126173;23;20176;-85
2022/01/07 00:04:54;;;;;;;21.20;15.23;;;0.90;99.90;;;;;;6126196;23;20178;-85
2022/01/07 00:07:21;;;;;;;18.65;15.85;;;0.90;99.90;;;;;;6125607;23;20635;-85
2022/01/07 00:09:48;;;;;;;20.52;15.43;;;1.00;99.90;;;;;;6125366;23;20201;-85
2022/01/07 00:12:17;;;;;;;18.80;13.95;;;0.90;99.90;;;;;;6126042;23;20177;-85
2022/01/07 00:14:43;;;;;;;26.65;16.35;;;0.80;99.90;;;;;;6124793;23;20255;-85
2022/01/07 00:17:10;;;;;;;23.02;14.27;;;0.80;99.90;;;;;;6125897;23;20176;-84
2022/01/07 00:19:37;;;;;;;23.48;15.02;;;0.80;99.90;;;;;;6127873;23;20200;-84
2022/01/07 00:22:05;;;;;;;19.85;14.25;;;0.80;99.90;;;;;;6132290;23;20185;-85
2022/01/07 00:24:31;;;;;;;19.73;13.93;;;0.80;99.90;;;;;;6147410;23;20206;-85
2022/01/07 00:26:58;;;;;;;16.38;14.43;;;0.80;99.90;;;;;;6140888;23;20190;-85
2022/01/07 00:29:25;;;;;;;21.50;12.20;;;0.80;99.90;;;;;;6130297;23;20221;-85
2022/01/07 00:31:51;;;;;;;19.48;14.70;;;0.80;99.90;;;;;;6127128;23;20208;-85
2022/01/07 00:34:18;;;;;;;23.27;14.00;;;0.70;99.90;;;;;;6127738;23;20191;-85
2022/01/07 00:36:45;;;;;;;22.42;13.30;;;0.70;99.90;;;;;;6127137;23;20195;-85
2022/01/07 00:39:13;;;;;;;20.48;15.13;;;0.70;99.90;;;;;;6127566;23;20256;-84
2022/01/07 00:41:40;;;;;;;21.13;14.02;;;0.80;99.90;;;;;;6127830;23;20188;-84
2022/01/07 00:44:06;;;;;;;17.20;14.20;;;0.70;99.90;;;;;;6128175;23;20184;-85
2022/01/07 00:46:33;;;;;;;18.67;15.40;;;0.80;99.90;;;;;;6128009;23;20243;-85
2022/01/07 00:49:00;;;;;;;20.92;14.75;;;0.80;99.90;;;;;;6128680;23;20200;-84
2022/01/07 00:51:27;;;;;;;19.00;14.70;;;0.80;99.90;;;;;;6139824;23;20180;-85
2022/01/07 00:53:53;;;;;;;21.65;13.90;;;0.80;99.90;;;;;;6146544;23;20181;-84
2022/01/07 00:56:21;;;;;;;19.33;15.13;;;0.80;99.90;;;;;;6129369;23;20224;-85
2022/01/07 00:58:48;;;;;;;22.17;15.88;;;0.80;99.90;;;;;;6128944;23;20219;-84
2022/01/07 01:01:15;;;;;;;19.55;15.55;;;0.70;99.90;;;;;;6128297;23;20176;-85
2022/01/07 01:03:42;;;;;;;20.45;14.20;;;0.70;99.90;;;;;;6136241;23;20232;-85
2022/01/07 01:06:08;;;;;;;22.50;15.95;;;0.60;99.90;;;;;;6127335;23;20568;-85
2022/01/07 01:08:35;;;;;;;23.20;16.42;;;0.60;99.90;;;;;;6127481;23;20198;-85
2022/01/07 01:11:02;;;;;;;18.25;15.00;;;0.60;99.90;;;;;;6141974;23;20164;-82
2022/01/07 01:13:31;;;;;;;23.92;15.13;;;0.60;99.90;;;;;;6153109;23;20178;-84
2022/01/07 01:15:58;;;;;;;23.15;15.20;;;0.60;99.90;;;;;;6148766;23;20200;-86
2022/01/07 01:18:25;;;;;;;18.38;15.05;;;0.60;99.90;;;;;;6149312;23;20204;-85
2022/01/07 01:20:51;;;;;;;15.77;13.27;;;0.60;99.90;;;;;;6133121;23;20176;-83
2022/01/07 01:23:18;;;;;;;22.67;15.25;;;0.70;99.90;;;;;;6130604;23;20187;-84
2022/01/07 01:25:45;;;;;;;21.65;15.40;;;0.60;99.90;;;;;;6136711;23;20230;-84
2022/01/07 01:28:11;;;;;;;20.98;15.80;;;0.60;99.90;;;;;;6135696;23;20208;-85
2022/01/07 01:30:39;;;;;;;19.80;15.75;;;0.60;99.90;;;;;;6127739;23;20686;-84
2022/01/07 01:33:06;;;;;;;22.77;15.55;;;0.60;99.90;;;;;;6139585;23;20180;-85
2022/01/07 01:35:35;;;;;;;19.40;15.05;;;0.60;99.90;;;;;;6145320;23;20189;-84
2022/01/07 01:38:02;;;;;;;18.15;15.25;;;0.50;99.90;;;;;;6143618;23;20205;-85
2022/01/07 01:40:29;;;;;;;23.95;16.58;;;0.50;99.90;;;;;;6147717;23;20184;-84
2022/01/07 01:42:57;;;;;;;23.20;16.05;;;0.50;99.90;;;;;;6147323;23;20182;-84
2022/01/07 01:45:25;;;;;;;22.88;17.05;;;0.50;99.90;;;;;;6144834;23;20177;-85
2022/01/07 01:47:53;;;;;;;23.10;14.98;;;0.50;99.90;;;;;;6142386;23;20208;-83
2022/01/07 01:50:20;;;;;;;21.75;15.60;;;0.40;99.90;;;;;;6143447;23;20173;-85
2022/01/07 01:52:50;;;;;;;21.23;15.38;;;0.40;99.90;;;;;;6143662;23;20180;-83
2022/01/07 01:55:19;;;;;;;19.23;16.00;;;0.30;99.90;;;;;;6142642;23;20180;-85
2022/01/07 01:57:46;;;;;;;20.83;15.43;;;0.30;99.90;;;;;;6143697;23;20208;-84
2022/01/07 02:00:13;;;;;;;18.90;15.57;;;0.30;99.90;;;;;;6141985;23;20181;-84
2022/01/07 02:02:40;;;;;;;22.08;15.88;;;0.30;99.90;;;;;;6141712;23;20213;-84
2022/01/07 02:05:10;;;;;;;22.13;15.48;;;0.20;99.90;;;;;;6142730;23;20176;-85
2022/01/07 02:07:39;;;;;;;22.20;16.27;;;0.30;99.90;;;;;;6142897;23;20186;-85
2022/01/07 02:10:09;;;;;;;22.88;15.20;;;0.40;99.90;;;;;;6141221;23;20176;-84
2022/01/07 02:12:36;;;;;;;23.17;15.82;;;0.40;99.90;;;;;;6139770;23;20181;-84
2022/01/07 02:15:03;;;;;;;20.65;14.73;;;0.40;99.90;;;;;;6139460;23;20180;-84
2022/01/07 02:17:30;;;;;;;17.20;14.95;;;0.40;99.90;;;;;;6137028;23;20200;-85
2022/01/07 02:19:58;;;;;;;21.27;16.02;;;0.40;99.90;;;;;;6130172;23;20200;-85
2022/01/07 02:22:25;;;;;;;21.33;16.80;;;0.40;99.90;;;;;;6128924;23;20514;-84
2022/01/07 02:24:53;;;;;;;20.60;15.27;;;0.40;99.90;;;;;;6141338;23;20181;-84
2022/01/07 02:27:20;;;;;;;22.52;16.00;;;0.40;99.90;;;;;;6136853;23;20164;-85
2022/01/07 02:29:49;;;;;;;19.25;14.73;;;0.40;99.90;;;;;;6126711;23;20526;-85
2022/01/07 02:32:17;;;;;;;18.10;13.68;;;0.40;99.90;;;;;;6131679;23;20184;-86
2022/01/07 02:34:44;;;;;;;19.17;15.65;;;0.40;99.90;;;;;;6129213;23;20683;-85
2022/01/07 02:37:13;;;;;;;18.50;14.63;;;0.50;99.90;;;;;;6129598;23;20208;-85
2022/01/07 02:39:39;;;;;;;24.52;15.23;;;0.50;99.90;;;;;;6141092;23;20275;-85
2022/01/07 02:42:07;;;;;;;20.60;15.45;;;0.50;99.90;;;;;;6126510;23;20233;-85
2022/01/07 02:44:34;;;;;;;19.90;15.02;;;0.50;99.90;;;;;;6126065;23;20185;-85
2022/01/07 02:47:00;;;;;;;21.98;15.00;;;0.50;99.90;;;;;;6126573;23;20180;-84
2022/01/07 02:49:27;;;;;;;21.92;14.75;;;0.50;99.90;;;;;;6131342;23;20216;-84
2022/01/07 02:51:54;;;;;;;16.52;14.38;;;0.50;99.90;;;;;;6134116;23;20185;-85
2022/01/07 02:54:22;;;;;;;17.33;14.05;;;0.50;99.90;;;;;;6136095;23;20179;-85
2022/01/07 02:56:49;;;;;;;19.25;16.23;;;0.50;99.90;;;;;;6138891;23;20184;-84
2022/01/07 02:59:16;;;;;;;21.33;14.60;;;0.40;99.90;;;;;;6131667;23;20687;-85
2022/01/07 03:01:43;;;;;;;21.20;16.20;;;0.40;99.90;;;;;;6126812;23;20179;-85
2022/01/07 03:04:09;;;;;;;20.40;13.38;;;0.40;99.90;;;;;;6131218;23;20212;-84
2022/01/07 03:06:37;;;;;;;22.45;16.50;;;0.40;99.90;;;;;;6148664;23;20183;-84
2022/01/07 03:09:06;;;;;;;22.23;15.73;;;0.40;99.90;;;;;;6137051;23;20204;-85
2022/01/07 03:11:34;;;;;;;17.48;13.65;;;0.40;99.90;;;;;;6128422;23;20183;-85
2022/01/07 03:14:01;;;;;;;18.17;14.13;;;0.30;99.90;;;;;;6127357;23;20184;-84
2022/01/07 03:16:27;;;;;;;26.13;16.00;;;0.30;99.90;;;;;;6126245;23;20192;-85
2022/01/07 03:18:54;;;;;;;18.05;13.77;;;0.30;99.90;;;;;;6126281;23;20200;-85
2022/01/07 03:21:21;;;;;;;23.67;15.82;;;0.30;99.90;;;;;;6130356;23;20651;-85
2022/01/07 03:23:48;;;;;;;22.05;13.98;;;0.20;99.90;;;;;;6136193;23;20176;-85
2022/01/07 03:26:14;;;;;;;21.90;14.63;;;0.20;99.90;;;;;;6128408;23;20179;-86
2022/01/07 03:28:44;;;;;;;18.70;14.02;;;0.20;99.90;;;;;;6142509;23;20200;-83
2022/01/07 03:31:11;;;;;;;14.98;12.90;;;0.20;99.90;;;;;;6151514;23;20179;-85
2022/01/07 03:33:38;;;;;;;18.77;13.75;;;0.10;99.90;;;;;;6131022;23;20180;-84
2022/01/07 03:36:05;;;;;;;21.80;13.50;;;0.20;99.90;;;;;;6128601;23;20200;-85
2022/01/07 03:38:31;;;;;;;23.63;14.57;;;0.20;99.90;;;;;;6129120;23;20271;-85
2022/01/07 03:40:58;;;;;;;19.02;12.18;;;0.20;99.90;;;;;;6126176;23;20184;-86
2022/01/07 03:43:25;;;;;;;21.20;14.07;;;0.20;99.90;;;;;;6127431;23;20234;-84
2022/01/07 03:45:53;;;;;;;17.45;12.57;;;0.20;99.90;;;;;;6126691;23;20192;-84
2022/01/07 03:48:20;;;;;;;13.23;11.80;;;0.30;99.90;;;;;;6129996;23;20215;-83
2022/01/07 03:50:46;;;;;;;14.85;11.30;;;0.30;99.90;;;;;;6128291;23;20646;-83
2022/01/07 03:53:13;;;;;;;14.10;12.60;;;0.30;99.90;;;;;;6134564;23;20187;-84
2022/01/07 03:55:40;;;;;;;13.23;11.68;;;0.30;99.90;;;;;;6139581;23;20181;-84
2022/01/07 03:58:07;;;;;;;14.95;11.05;;;0.30;99.90;;;;;;6127276;23;20204;-84
2022/01/07 04:00:36;;;;;;;15.07;12.93;;;0.30;99.90;;;;;;6130190;23;20164;-83
2022/01/07 04:03:06;;;;;;;18.65;13.07;;;0.30;99.90;;;;;;6142282;23;20190;-84
2022/01/07 04:05:33;;;;;;;15.02;11.00;;;0.30;99.90;;;;;;6135368;23;20181;-84
2022/01/07 04:08:00;;;;;;;17.77;13.70;;;0.30;99.90;;;;;;6129310;23;20196;-84
2022/01/07 04:10:27;;;;;;;12.90;9.70;;;0.40;99.90;;;;;;6129251;23;20187;-84
2022/01/07 04:12:53;;;;;;;14.82;10.30;;;0.30;99.90;;;;;;6133957;23;20208;-84
2022/01/07 04:15:22;;;;;;;15.73;9.95;;;0.30;99.90;;;;;;6130898;23;20184;-84
2022/01/07 04:17:51;;;;;;;13.55;10.30;;;0.30;99.90;;;;;;6127288;23;20219;-83
2022/01/07 04:20:21;;;;;;;16.38;10.18;;;0.30;99.90;;;;;;6126205;23;20499;-85
2022/01/07 04:22:49;;;;;;;15.65;10.10;;;0.30;99.90;;;;;;6138038;23;20186;-84
2022/01/07 04:25:18;;;;;;;16.90;8.75;;;0.40;99.90;;;;;;6133528;23;20275;-83
2022/01/07 04:27:46;;;;;;;12.65;8.95;;;0.40;99.90;;;;;;6148872;23;20164;-83
2022/01/07 04:30:13;;;;;;;14.02;8.07;;;0.40;99.90;;;;;;6136988;23;20180;-84
2022/01/07 04:32:41;;;;;;;15.18;9.52;;;0.40;99.90;;;;;;6126497;23;20565;-84
2022/01/07 04:35:08;;;;;;;14.73;9.63;;;0.40;99.90;;;;;;6125666;23;20176;-84
2022/01/07 04:37:36;;;;;;;13.18;9.23;;;0.40;99.90;;;;;;6126029;23;20218;-84
2022/01/07 04:40:04;;;;;;;9.82;8.73;;;0.40;99.90;;;;;;6134063;23;20191;-83
2022/01/07 04:42:31;;;;;;;12.88;9.55;;;0.40;99.90;;;;;;6137970;23;20647;-84
2022/01/07 04:44:57;;;;;;;14.15;9.05;;;0.40;99.90;;;;;;6134133;23;20187;-83
2022/01/07 04:47:24;;;;;;;10.50;9.48;;;0.40;99.90;;;;;;6128576;23;20632;-84
2022/01/07 04:49:51;;;;;;;11.35;8.27;;;0.40;99.90;;;;;;6126721;23;20535;-84
2022/01/07 04:52:20;;;;;;;12.13;9.25;;;0.40;99.90;;;;;;6141933;23;20165;-83
2022/01/07 04:54:49;;;;;;;14.60;9.63;;;0.40;99.90;;;;;;6125052;23;20179;-83
2022/01/07 04:57:15;;;;;;;13.45;8.73;;;0.40;99.90;;;;;;6125045;23;20231;-84
2022/01/07 04:59:42;;;;;;;9.95;8.30;;;0.40;99.90;;;;;;6125206;23;20200;-84
2022/01/07 05:02:09;;;;;;;11.07;8.55;;;0.40;99.90;;;;;;6126440;23;20180;-84
2022/01/07 05:04:36;;;;;;;10.00;7.80;;;0.40;99.90;;;;;;6125680;23;20172;-83
2022/01/07 05:07:02;;;;;;;11.02;9.05;;;0.40;99.90;;;;;;6128059;23;20183;-84
2022/01/07 05:09:29;;;;;;;17.27;9.20;;;0.40;99.90;;;;;;6127166;23;20195;-84
2022/01/07 05:11:57;;;;;;;12.57;9.13;;;0.40;99.90;;;;;;6126897;23;20180;-84
2022/01/07 05:14:24;;;;;;;13.82;8.65;;;0.40;99.90;;;;;;6126834;23;20180;-84
2022/01/07 05:16:50;;;;;;;12.40;9.88;;;0.30;99.90;;;;;;6126947;23;20200;-84
2022/01/07 05:19:17;;;;;;;14.82;8.85;;;0.30;99.90;;;;;;6127103;23;20209;-84
2022/01/07 05:21:44;;;;;;;11.20;8.68;;;0.40;99.90;;;;;;6127872;23;20181;-84
2022/01/07 05:24:10;;;;;;;21.80;9.35;;;0.40;99.90;;;;;;6127138;23;20570;-84
2022/01/07 05:26:37;;;;;;;10.65;9.23;;;0.30;99.90;;;;;;6128822;23;20172;-83
2022/01/07 05:29:06;;;;;;;13.70;9.32;;;0.20;99.90;;;;;;6140898;23;20263;-91
2022/01/07 05:31:34;;;;;;;14.23;8.75;;;0.20;99.90;;;;;;6137191;23;20227;-94
2022/01/07 05:36:42;;;;;;;12.43;8.52;;;0.30;99.90;;;;;;6129756;23;20195;-91
2022/01/07 05:39:09;;;;;;;12.27;9.00;;;0.30;99.90;;;;;;6133117;23;20197;-91
2022/01/07 05:41:38;;;;;;;11.85;8.73;;;0.30;99.90;;;;;;6132754;23;20184;-90
2022/01/07 05:44:17;;;;;;;14.27;9.57;;;0.40;99.90;;;;;;6131624;23;20190;-91
2022/01/07 05:46:46;;;;;;;11.75;8.30;;;0.40;99.90;;;;;;6137677;23;20149;-91
2022/01/07 05:49:13;;;;;;;11.68;8.77;;;0.40;99.90;;;;;;6154473;23;20184;-95
2022/01/07 05:51:41;;;;;;;12.85;10.73;;;0.50;99.90;;;;;;6148388;23;20172;-91
2022/01/07 05:54:08;;;;;;;12.63;9.30;;;0.50;99.90;;;;;;6152639;23;20172;-93
2022/01/07 05:56:36;;;;;;;13.63;8.60;;;0.60;99.90;;;;;;6154310;23;20208;-94
2022/01/07 05:59:03;;;;;;;17.42;9.68;;;0.60;99.90;;;;;;6145905;23;20281;-90
2022/01/07 06:01:32;;;;;;;11.82;8.25;;;0.60;99.90;;;;;;6133543;23;20249;-91
2022/01/07 06:04:13;;;;;;;11.35;8.80;;;0.70;99.90;;;;;;6133235;23;20181;-90
2022/01/07 06:06:42;;;;;;;14.18;9.85;;;0.70;99.90;;;;;;6153313;23;20183;-93
2022/01/07 06:12:34;;;;;;;12.57;9.77;;;0.70;99.90;;;;;;6151526;23;20160;-91
2022/01/07 06:20:56;;;;;;;16.02;10.15;;;0.70;99.90;;;;;;6101754;23;20668;-91
2022/01/07 06:23:25;;;;;;;17.70;10.98;;;0.60;99.90;;;;;;6136056;23;20197;-93
2022/01/07 06:25:52;;;;;;;13.35;9.80;;;0.60;99.90;;;;;;6106887;23;20210;-92
2022/01/07 06:28:22;;;;;;;12.98;8.93;;;0.70;99.90;;;;;;6144334;23;20190;-92
2022/01/07 06:30:49;;;;;;;21.70;10.68;;;0.70;99.90;;;;;;6136525;23;20187;-91
2022/01/07 06:33:23;;;;;;;14.40;9.13;;;0.70;99.90;;;;;;6133197;23;20516;-92
2022/01/07 06:35:55;;;;;;;10.13;7.93;;;0.70;99.90;;;;;;6133951;23;20216;-92
2022/01/07 06:38:29;;;;;;;11.52;9.55;;;0.70;99.90;;;;;;6132539;23;20248;-93
2022/01/07 06:40:56;;;;;;;11.95;9.43;;;0.70;99.90;;;;;;6133652;23;20235;-92
2022/01/07 06:43:23;;;;;;;19.98;10.75;;;0.70;99.90;;;;;;6135738;23;20227;-92
2022/01/07 06:48:43;;;;;;;14.75;10.63;;;0.70;99.90;;;;;;6119830;23;20251;-92
2022/01/07 06:51:10;;;;;;;12.35;9.75;;;0.70;99.90;;;;;;6138628;23;20176;-91
2022/01/07 06:53:39;;;;;;;11.00;9.75;;;0.70;99.90;;;;;;6153210;23;20173;-92
2022/01/07 06:56:07;;;;;;;17.10;10.13;;;0.70;99.90;;;;;;6146347;23;20177;-91
2022/01/07 06:58:35;;;;;;;14.15;10.18;;;0.70;99.90;;;;;;6149812;23;20265;-92
2022/01/07 07:01:09;;;;;;;15.15;10.77;;;0.70;99.90;;;;;;6136864;23;20183;-91
2022/01/07 07:03:40;;;;;;;14.65;10.13;;;0.70;99.90;;;;;;6132365;23;20180;-91
2022/01/07 07:06:08;;;;;;;14.68;10.02;;;0.60;99.90;;;;;;6134329;23;20169;-91
2022/01/07 07:08:38;;;;;;;17.27;9.82;;;0.70;99.90;;;;;;6135652;23;20208;-91
2022/01/07 07:11:11;;;;;;;13.50;9.68;;;0.70;99.90;;;;;;6151985;23;20169;-93
2022/01/07 07:13:38;;;;;;;12.45;9.13;;;0.70;99.90;;;;;;6132495;23;20742;-90
2022/01/07 07:16:06;;;;;;;15.00;9.57;;;0.80;99.90;;;;;;6131026;23;20172;-90
2022/01/07 07:18:35;;;;;;;17.40;9.50;;;0.90;99.90;;;;;;6131034;23;20275;-90
2022/01/07 07:21:03;;;;;;;12.77;9.63;;;0.90;99.90;;;;;;6131114;23;20528;-91
2022/01/07 07:23:31;;;;;;;12.85;9.30;;;0.90;99.90;;;;;;6131843;23;20188;-91
2022/01/07 07:25:59;;;;;;;12.30;10.63;;;1.00;99.90;;;;;;6130414;23;20242;-90
2022/01/07 07:31:17;;;;;;;14.38;9.20;;;1.00;99.90;;;;;;6128454;23;20177;-91
2022/01/07 07:36:44;;;;;;;13.52;9.68;;;1.10;99.90;;;;;;6076681;23;20241;-90
2022/01/07 07:39:12;;;;;;;13.75;9.70;;;1.20;99.90;;;;;;6076624;23;20202;-91
2022/01/07 07:41:41;;;;;;;12.85;8.75;;;1.20;99.90;;;;;;6115017;23;20225;-92
2022/01/07 07:44:10;;;;;;;12.05;8.60;;;1.20;99.90;;;;;;6145829;23;20167;-91
2022/01/07 07:46:40;;;;;;;11.98;9.20;;;1.30;99.90;;;;;;6133090;23;20176;-91
2022/01/07 07:49:11;;;;;;;12.32;9.18;;;1.30;99.90;;;;;;6140909;23;20192;-90
2022/01/07 07:51:39;;;;;;;12.57;8.98;;;1.30;99.90;;;;;;6133627;23;20232;-90
2022/01/07 07:54:08;;;;;;;13.68;8.43;;;1.40;99.90;;;;;;6144129;23;20184;-90
2022/01/07 07:56:35;;;;;;;11.45;8.60;;;1.30;99.90;;;;;;6150544;23;20176;-90
2022/01/07 07:59:07;;;;;;;11.05;9.25;;;1.30;99.90;;;;;;6152856;23;20212;-93
2022/01/07 08:01:37;;;;;;;18.27;9.02;;;1.30;99.90;;;;;;6143770;23;20233;-94
2022/01/07 08:04:09;;;;;;;15.32;8.35;;;1.40;99.90;;;;;;6140063;23;20205;-90
2022/01/07 08:06:35;;;;;;;9.32;8.18;;;1.40;99.90;;;;;;6137137;23;20165;-90
2022/01/07 08:09:05;;;;;;;16.70;9.82;;;1.40;99.90;;;;;;6153552;23;20189;-91
2022/01/07 08:11:47;;;;;;;12.75;8.70;;;1.50;99.90;;;;;;6153916;23;20178;-92
2022/01/07 08:17:01;;;;;;;12.38;8.45;;;1.50;99.90;;;;;;6153664;23;20176;-92
2022/01/07 08:19:28;;;;;;;11.77;8.85;;;1.60;99.90;;;;;;6148440;23;20203;-92
2022/01/07 08:21:55;;;;;;;10.43;8.43;;;1.70;99.90;;;;;;6141440;23;20203;-91
2022/01/07 08:24:22;;;;;;;12.60;7.80;;;1.80;99.90;;;;;;6139780;23;20272;-91
2022/01/07 08:26:50;;;;;;;13.73;8.38;;;1.80;99.90;;;;;;6144267;23;20237;-91
2022/01/07 08:29:19;;;;;;;11.65;8.45;;;1.90;99.90;;;;;;6143689;23;20192;-92
2022/01/07 08:37:19;;;;;;;11.68;9.23;;;1.90;99.90;;;;;;6143161;23;20164;-91
2022/01/07 08:42:28;;;;;;;10.68;7.85;;;2.00;99.90;;;;;;6135781;23;20187;-92
2022/01/07 08:58:26;;;;;;;8.50;7.70;;;2.10;99.90;;;;;;4984728;27;5026884;-91
2022/01/07 09:01:02;;;;;;;12.90;8.90;;;2.20;99.90;;;;;;5125714;28;20279;-92
2022/01/07 09:06:13;;;;;;;10.05;8.55;;;2.20;99.90;;;;;;5140587;28;20228;-93
2022/01/07 09:08:42;;;;;;;11.52;7.68;;;2.30;99.90;;;;;;5128941;27;20324;-92
2022/01/07 09:11:11;;;;;;;9.48;8.23;;;2.40;99.90;;;;;;5132003;28;20224;-91
2022/01/07 09:13:42;;;;;;;11.93;7.30;;;2.40;99.90;;;;;;5125629;28;20669;-91
2022/01/07 09:16:10;;;;;;;13.57;8.17;;;2.60;99.90;;;;;;5119916;28;20196;-92
2022/01/07 09:18:41;;;;;;;12.57;7.37;;;2.70;99.90;;;;;;5118024;28;20906;-92
2022/01/07 09:21:09;;;;;;;9.40;7.10;;;2.70;99.90;;;;;;5119761;28;20445;-91
2022/01/07 09:23:40;;;;;;;12.30;8.27;;;2.80;99.90;;;;;;5141753;28;20456;-92
2022/01/07 09:26:08;;;;;;;9.60;6.77;;;2.90;99.90;;;;;;5121707;28;20468;-92
2022/01/07 09:28:35;;;;;;;9.18;7.10;;;3.00;99.90;;;;;;5129992;27;20495;-92
2022/01/07 09:31:07;;;;;;;8.63;7.22;;;3.00;99.90;;;;;;5137572;28;20243;-92
2022/01/07 09:33:36;;;;;;;8.13;7.33;;;3.00;99.90;;;;;;5136988;28;20225;-94
2022/01/07 09:36:08;;;;;;;7.63;6.93;;;3.00;99.90;;;;;;5122817;28;20442;-90
2022/01/07 09:38:37;;;;;;;14.53;8.50;;;2.90;99.90;;;;;;5126116;28;20221;-91
2022/01/07 09:41:17;;;;;;;13.80;8.05;;;2.90;99.90;;;;;;5134004;28;20471;-91
2022/01/07 09:43:46;;;;;;;10.27;8.93;;;2.90;99.90;;;;;;5147700;27;20197;-91
2022/01/07 09:46:18;;;;;;;12.60;8.77;;;2.80;99.90;;;;;;5139273;28;20261;-92
2022/01/07 09:48:47;;;;;;;10.18;8.30;;;2.70;99.90;;;;;;5121743;28;20467;-91
2022/01/07 09:51:15;;;;;;;9.77;8.60;;;2.70;99.90;;;;;;5137959;27;20214;-92
2022/01/07 09:53:43;;;;;;;14.18;8.98;;;2.60;99.90;;;;;;5122588;28;20221;-91
2022/01/07 09:56:12;;;;;;;10.98;8.23;;;2.60;99.90;;;;;;5129691;28;20251;-93
2022/01/07 09:58:43;;;;;;;12.47;8.80;;;2.50;99.90;;;;;;5107791;28;20236;-92
2022/01/07 10:01:14;;;;;;;13.73;8.63;;;2.50;99.90;;;;;;5119875;28;20450;-92
2022/01/07 10:03:45;;;;;;;14.48;8.30;;;2.50;99.90;;;;;;5125756;28;20624;-92
2022/01/07 10:06:20;;;;;;;13.80;8.40;;;2.70;99.90;;;;;;5133700;28;20226;-93
2022/01/07 10:09:01;;;;;;;12.20;9.10;;;2.70;99.90;;;;;;5141569;28;20230;-93
2022/01/07 10:11:29;;;;;;;13.27;9.77;;;2.70;99.90;;;;;;5126136;28;20445;-93
2022/01/07 10:14:16;;;;;;;13.20;8.95;;;2.70;99.90;;;;;;5115137;28;20474;-92
2022/01/07 10:25:05;;;;;;;15.50;9.77;;;2.70;99.90;;;;;;5107598;28;20455;-92
2022/01/07 10:30:26;;;;;;;16.23;8.75;;;2.70;99.90;;;;;;5123918;28;20506;-93
2022/01/07 10:32:59;;;;;;;12.47;8.43;;;2.70;99.90;;;;;;5122101;28;20210;-92
2022/01/07 10:35:34;;;;;;;16.03;8.60;;;2.70;99.90;;;;;;5118931;28;20445;-91
2022/01/07 10:38:04;;;;;;;11.85;9.10;;;2.70;99.90;;;;;;5112115;28;20468;-91
2022/01/07 10:40:38;;;;;;;15.00;9.77;;;2.70;99.90;;;;;;5113905;28;20221;-91
2022/01/07 10:45:54;;;;;;;13.38;9.50;;;2.50;99.90;;;;;;5118578;28;20211;-91
2022/01/07 10:51:25;;;;;;;15.57;10.00;;;2.60;99.90;;;;;;5113054;28;20262;-91
2022/01/07 10:54:09;;;;;;;14.13;9.02;;;2.50;99.90;;;;;;5124046;28;20816;-91
2022/01/07 10:56:40;;;;;;;11.93;10.40;;;2.50;99.90;;;;;;5105016;28;20209;-90
2022/01/07 11:01:51;;;;;;;12.15;9.20;;;2.60;99.90;;;;;;5120962;28;20205;-91
2022/01/07 11:04:22;;;;;;;16.67;10.40;;;2.50;99.90;;;;;;5112384;28;20206;-90
2022/01/07 11:06:51;;;;;;;15.10;9.55;;;2.50;99.90;;;;;;5105177;28;20898;-91
2022/01/07 11:09:19;;;;;;;14.95;9.75;;;2.50;99.90;;;;;;5120845;28;20228;-87
2022/01/07 11:11:48;;;;;;;14.20;9.93;;;2.40;99.90;;;;;;5102193;28;20631;-78
2022/01/07 11:14:22;;;;;;;12.52;9.55;;;2.40;99.90;;;;;;5112843;28;20219;-79
2022/01/07 11:16:49;;;;;;;12.20;9.27;;;2.40;99.90;;;;;;5109307;28;20190;-90
2022/01/07 11:19:20;;;;;;;12.50;9.98;;;2.30;99.90;;;;;;5110342;28;20990;-90
2022/01/07 11:21:52;;;;;;;13.10;9.38;;;2.30;99.90;;;;;;5112816;28;20213;-89
2022/01/07 11:24:37;;;;;;;15.65;10.00;;;2.20;99.90;;;;;;5118074;28;20195;-90
2022/01/07 11:27:05;;;;;;;13.57;10.75;;;2.20;99.90;;;;;;5099547;28;20208;-89
2022/01/07 11:29:35;;;;;;;12.60;10.05;;;2.20;99.90;;;;;;5084183;22;20551;-83
2022/01/07 11:32:32;;;;;;;13.07;9.82;;;2.20;99.90;;;;;;4998946;28;20210;-84
2022/01/07 11:35:35;;;;;;;12.07;10.35;;;2.20;99.90;;;;;;5001527;28;20207;-83
2022/01/07 11:38:03;;;;;;;16.43;11.73;;;2.30;99.90;;;;;;4999160;28;20669;-85
2022/01/07 11:40:45;;;;;;;13.95;10.60;;;2.30;99.90;;;;;;5002989;28;20470;-84
2022/01/07 11:43:30;;;;;;;12.67;9.27;;;2.40;99.90;;;;;;5001877;28;20208;-84
2022/01/07 11:45:57;;;;;;;13.27;9.07;;;2.40;99.90;;;;;;5002640;28;20451;-84
2022/01/07 11:48:27;;;;;;;12.10;9.82;;;2.40;99.90;;;;;;4999995;28;20493;-84
2022/01/07 11:51:13;;;;;;;12.23;9.05;;;2.40;99.90;;;;;;4997021;28;20219;-84
2022/01/07 11:54:04;;;;;;;19.13;10.50;;;2.40;99.90;;;;;;4996818;28;20206;-85
2022/01/07 11:56:31;;;;;;;13.10;9.88;;;2.50;99.90;;;;;;4996862;28;20266;-84
2022/01/07 11:59:00;;;;;;;14.15;10.98;;;2.50;99.90;;;;;;4996703;28;20229;-84
2022/01/07 12:01:28;;;;;;;14.52;9.15;;;2.50;99.90;;;;;;4995828;28;20198;-84
2022/01/07 12:03:56;;;;;;;16.63;10.40;;;2.50;99.90;;;;;;4995564;28;20692;-83
2022/01/07 12:06:46;;;;;;;12.77;9.47;;;2.70;99.90;;;;;;4995489;28;20544;-84
2022/01/07 12:09:25;;;;;;;12.55;8.70;;;2.70;99.90;;;;;;4995204;28;20572;-84
2022/01/07 12:11:54;;;;;;;13.63;9.13;;;2.70;99.90;;;;;;4997117;28;20216;-83
2022/01/07 12:14:23;;;;;;;12.27;9.77;;;2.80;99.90;;;;;;4996390;28;20210;-83
2022/01/07 12:16:52;;;;;;;14.77;9.27;;;2.90;99.90;;;;;;4995690;28;20451;-84
2022/01/07 12:19:52;;;;;;;14.48;10.00;;;2.90;99.90;;;;;;4995106;28;20463;-84
2022/01/07 12:22:20;;;;;;;12.40;9.30;;;3.00;99.90;;;;;;4960808;28;20197;-84
2022/01/07 12:24:50;;;;;;;13.83;9.20;;;3.00;99.90;;;;;;4995776;28;20457;-83
2022/01/07 12:27:20;;;;;;;13.27;10.17;;;3.00;99.90;;;;;;4987353;28;20505;-83
2022/01/07 12:29:49;;;;;;;14.38;9.68;;;3.10;99.90;;;;;;4997843;28;20484;-83
2022/01/07 12:32:18;;;;;;;11.57;9.23;;;3.10;99.90;;;;;;5001189;28;20209;-82
2022/01/07 12:34:47;;;;;;;11.63;9.77;;;3.20;99.90;;;;;;5008751;28;20457;-82
2022/01/07 12:37:16;;;;;;;11.00;8.50;;;3.20;99.90;;;;;;5005607;28;20651;-84
2022/01/07 12:39:46;;;;;;;12.13;10.83;;;3.30;99.90;;;;;;4996458;28;20477;-84
2022/01/07 12:42:14;;;;;;;14.53;9.67;;;3.40;99.90;;;;;;4996927;28;20449;-85
2022/01/07 12:44:44;;;;;;;10.33;7.97;;;3.40;99.90;;;;;;4994884;28;20479;-85
2022/01/07 12:47:14;;;;;;;9.83;8.37;;;3.60;99.90;;;;;;4996382;28;20570;-84
2022/01/07 12:49:43;;;;;;;10.80;8.87;;;3.60;99.90;;;;;;5002675;28;20478;-85
2022/01/07 12:52:17;;;;;;;10.80;7.40;;;3.60;99.90;;;;;;4999345;28;20464;-84
2022/01/07 12:54:51;;;;;;;17.70;8.93;;;3.60;99.90;;;;;;5001128;28;20463;-84
2022/01/07 12:57:25;;;;;;;10.77;8.67;;;3.70;99.90;;;;;;5004309;28;20894;-84
2022/01/07 13:00:05;;;;;;;13.00;8.20;;;3.70;99.90;;;;;;4999517;28;20526;-85
2022/01/07 13:02:32;;;;;;;12.47;9.77;;;3.80;99.90;;;;;;5003835;28;20462;-84
2022/01/07 13:05:10;;;;;;;10.43;8.53;;;3.90;99.90;;;;;;5004901;28;20453;-85
2022/01/07 13:07:40;;;;;;;10.90;8.50;;;4.10;99.90;;;;;;4991710;28;20488;-83
2022/01/07 13:10:08;;;;;;;12.90;9.53;;;4.20;99.90;;;;;;5006895;28;20534;-84
2022/01/07 13:12:36;;;;;;;11.03;9.03;;;4.20;99.90;;;;;;5001306;28;20449;-84
2022/01/07 13:15:04;;;;;;;12.70;9.90;;;4.20;99.90;;;;;;5002696;28;20828;-84
2022/01/07 13:17:30;;;;;;;12.30;10.27;;;4.10;99.90;;;;;;5014320;28;20957;-83
2022/01/07 13:19:57;;;;;;;13.17;10.93;;;4.20;99.90;;;;;;5006700;28;20473;-84
2022/01/07 13:22:26;;;;;;;11.17;8.87;;;4.30;99.90;;;;;;5008822;28;20457;-83
2022/01/07 13:24:53;;;;;;;13.03;10.43;;;4.40;99.90;;;;;;5000120;28;20465;-84
2022/01/07 13:27:20;;;;;;;14.80;9.60;;;4.50;99.90;;;;;;5003319;28;20481;-84
2022/01/07 13:29:49;;;;;;;12.40;8.70;;;4.50;99.90;;;;;;4985241;28;20479;-84
2022/01/07 13:32:21;;;;;;;10.20;9.07;;;4.40;99.90;;;;;;4979852;28;20473;-84
2022/01/07 13:34:49;;;;;;;13.50;9.27;;;4.30;99.90;;;;;;4987486;28;20477;-84
2022/01/07 13:37:18;;;;;;;10.70;7.83;;;4.20;99.90;;;;;;4981912;28;20450;-85
2022/01/07 13:39:47;;;;;;;9.87;7.00;;;4.10;99.90;;;;;;4979541;28;20471;-84
2022/01/07 13:42:18;;;;;;;10.10;7.43;;;4.20;99.90;;;;;;4984149;28;20451;-84
2022/01/07 13:44:52;;;;;;;9.00;6.77;;;4.10;99.90;;;;;;4982847;28;20506;-82
2022/01/07 13:47:21;;;;;;;7.07;6.47;;;4.20;99.90;;;;;;4987725;28;20471;-85
2022/01/07 13:49:48;;;;;;;9.20;6.60;;;4.20;99.90;;;;;;4983327;28;21004;-84
2022/01/07 13:52:27;;;;;;;7.20;6.10;;;4.30;99.90;;;;;;4981068;28;20441;-84
2022/01/07 13:54:54;;;;;;;6.40;5.70;;;4.40;99.90;;;;;;4978812;28;20501;-84
2022/01/07 13:57:21;;;;;;;7.70;5.20;;;4.40;99.90;;;;;;4979290;28;20459;-85
2022/01/07 13:59:51;;;;;;;7.27;5.47;;;4.40;99.90;;;;;;4979073;28;20479;-85